createdAt,value
2019-05-16T00:01:09.505Z,56.99
2019-05-16T00:03:39.358Z,56.81
2019-05-16T00:06:09.024Z,57.04
2019-05-16T00:08:38.917Z,56.83
2019-05-16T00:11:08.733Z,57.05
2019-05-16T00:13:38.491Z,56.93
2019-05-16T00:16:08.323Z,56.21
2019-05-16T00:18:38.834Z,57.16
2019-05-16T00:21:08.888Z,56.75
2019-05-16T00:23:38.587Z,57.30
2019-05-16T00:26:08.277Z,58.47
2019-05-16T00:28:38.141Z,58.27
2019-05-16T00:31:08.589Z,58.01
2019-05-16T00:33:38.473Z,58.11
2019-05-16T00:36:09.176Z,58.07
2019-05-16T00:38:38.998Z,57.47
2019-05-16T00:41:08.836Z,57.61
2019-05-16T00:43:38.510Z,58.13
2019-05-16T00:46:08.396Z,58.20
2019-05-16T00:48:38.313Z,57.83
2019-05-16T00:51:08.413Z,58.81
2019-05-16T00:53:38.390Z,59.26
2019-05-16T00:56:09.004Z,58.45
2019-05-16T00:58:39.199Z,59.21
2019-05-16T01:01:08.996Z,59.06
2019-05-16T01:03:38.745Z,58.60
2019-05-16T01:06:18.480Z,59.21
2019-05-16T01:08:40.009Z,59.50
2019-05-16T01:11:09.792Z,59.48
2019-05-16T01:13:39.528Z,58.79
2019-05-16T01:16:09.240Z,59.71
2019-05-16T01:18:39.028Z,60.39
2019-05-16T01:21:08.792Z,61.62
2019-05-16T01:23:38.910Z,59.16
2019-05-16T01:26:08.729Z,59.23
2019-05-16T01:28:38.500Z,60.47
2019-05-16T01:31:08.687Z,60.14
2019-05-16T01:33:38.674Z,60.05
2019-05-16T01:36:09.088Z,59.83
2019-05-16T01:38:39.179Z,60.03
2019-05-16T01:41:08.970Z,60.74
2019-05-16T01:43:38.731Z,60.73
2019-05-16T01:46:08.591Z,60.95
2019-05-16T01:48:38.384Z,61.32
2019-05-16T01:51:08.199Z,61.23
2019-05-16T01:53:39.515Z,61.31
2019-05-16T01:56:09.342Z,60.91
2019-05-16T01:58:39.203Z,61.15
2019-05-16T02:01:13.209Z,61.59
2019-05-16T02:03:40.460Z,61.73
2019-05-16T02:06:10.361Z,60.71
2019-05-16T02:08:40.180Z,60.91
2019-05-16T02:11:10.024Z,60.97
2019-05-16T02:13:39.912Z,61.83
2019-05-16T02:16:10.164Z,61.91
2019-05-16T02:18:39.938Z,62.60
2019-05-16T02:21:09.954Z,62.58
2019-05-16T02:23:39.878Z,63.32
2019-05-16T02:26:09.699Z,63.47
2019-05-16T02:28:42.979Z,63.58
2019-05-16T02:31:14.860Z,63.00
2019-05-16T02:33:43.167Z,63.54
2019-05-16T02:36:12.915Z,63.64
2019-05-16T02:38:42.677Z,63.67
2019-05-16T02:41:12.410Z,63.72
2019-05-16T02:43:42.459Z,63.59
2019-05-16T02:46:12.384Z,64.03
2019-05-16T02:48:43.415Z,63.75
2019-05-16T02:51:13.119Z,63.86
2019-05-16T02:53:44.379Z,63.69
2019-05-16T02:56:14.177Z,63.14
2019-05-16T02:58:45.024Z,63.38
2019-05-16T03:01:15.265Z,63.45
2019-05-16T03:03:45.074Z,63.34
2019-05-16T03:06:15.652Z,63.51
2019-05-16T03:08:47.387Z,63.50
2019-05-16T03:11:21.041Z,63.35
2019-05-16T03:13:53.089Z,63.74
2019-05-16T03:16:24.682Z,64.02
2019-05-16T03:18:55.042Z,64.82
2019-05-16T03:21:25.302Z,64.88
2019-05-16T03:23:55.121Z,65.25
2019-05-16T03:26:24.838Z,64.65
2019-05-16T03:28:54.665Z,64.63
2019-05-16T03:31:25.442Z,64.92
2019-05-16T03:33:59.183Z,65.40
2019-05-16T03:36:26.727Z,65.57
2019-05-16T03:38:56.430Z,65.93
2019-05-16T03:41:26.190Z,66.28
2019-05-16T03:43:55.900Z,67.07
2019-05-16T03:46:25.691Z,66.97
2019-05-16T03:48:55.445Z,67.23
2019-05-16T03:51:25.299Z,67.46
2019-05-16T03:53:55.031Z,68.14
2019-05-16T03:56:24.781Z,67.92
2019-05-16T03:58:54.599Z,67.78
2019-05-16T04:01:24.309Z,68.25
2019-05-16T04:03:54.205Z,68.04
2019-05-16T04:06:23.955Z,67.97
2019-05-16T04:08:53.693Z,68.02
2019-05-16T04:11:23.764Z,67.61
2019-05-16T04:13:53.871Z,67.34
2019-05-16T04:16:23.821Z,67.09
2019-05-16T04:18:53.505Z,66.25
2019-05-16T04:21:23.318Z,65.92
2019-05-16T04:23:53.033Z,66.30
2019-05-16T04:26:22.770Z,65.70
2019-05-16T04:28:52.516Z,66.32
2019-05-16T04:31:22.360Z,66.59
2019-05-16T04:33:52.198Z,67.21
2019-05-16T04:36:22.008Z,66.48
2019-05-16T04:38:51.794Z,66.98
2019-05-16T04:41:21.740Z,67.15
2019-05-16T04:43:51.454Z,67.60
2019-05-16T04:46:21.728Z,66.97
2019-05-16T04:48:51.633Z,67.30
2019-05-16T04:51:22.115Z,66.60
2019-05-16T04:53:51.979Z,67.51
2019-05-16T04:56:22.028Z,66.43
2019-05-16T04:58:52.029Z,67.62
2019-05-16T05:01:21.953Z,67.56
2019-05-16T05:04:06.151Z,67.61
2019-05-16T05:06:23.193Z,67.40
2019-05-16T05:08:58.513Z,67.21
2019-05-16T05:11:24.516Z,67.12
2019-05-16T05:13:54.215Z,66.60
2019-05-16T05:16:23.970Z,65.66
2019-05-16T05:18:53.679Z,64.79
2019-05-16T05:21:23.417Z,64.90
2019-05-16T05:23:53.181Z,64.76
2019-05-16T05:26:23.062Z,65.88
2019-05-16T05:28:52.946Z,64.67
2019-05-16T05:31:24.738Z,66.22
2019-05-16T05:33:54.210Z,65.57
2019-05-16T05:36:23.934Z,66.93
2019-05-16T05:39:07.929Z,67.27
2019-05-16T05:41:30.454Z,68.88
2019-05-16T05:43:59.941Z,68.31
2019-05-16T05:46:31.636Z,69.30
2019-05-16T05:49:01.180Z,70.08
2019-05-16T05:51:30.990Z,70.11
2019-05-16T05:54:00.730Z,70.46
2019-05-16T05:56:30.677Z,70.07
2019-05-16T05:59:01.533Z,69.54
2019-05-16T06:01:31.670Z,69.05
2019-05-16T06:04:01.619Z,68.11
2019-05-16T06:06:31.441Z,68.02
2019-05-16T06:09:02.413Z,67.47
2019-05-16T06:11:32.465Z,68.04
2019-05-16T06:14:02.305Z,67.96
2019-05-16T06:16:32.061Z,69.02
2019-05-16T06:19:01.782Z,68.20
2019-05-16T06:21:33.220Z,66.19
2019-05-16T06:24:03.255Z,64.83
2019-05-16T06:26:32.990Z,65.27
2019-05-16T06:29:02.759Z,61.88
2019-05-16T06:31:32.560Z,63.96
2019-05-16T06:34:07.936Z,62.96
2019-05-16T06:36:33.928Z,64.20
2019-05-16T06:39:05.428Z,65.50
2019-05-16T06:41:35.333Z,67.56
2019-05-16T06:44:05.206Z,66.15
2019-05-16T06:46:43.752Z,67.32
2019-05-16T06:49:06.587Z,65.47
2019-05-16T06:51:36.367Z,63.54
2019-05-16T06:54:06.180Z,60.90
2019-05-16T06:56:35.895Z,62.06
2019-05-16T06:59:05.716Z,61.41
2019-05-16T07:01:37.068Z,61.36
2019-05-16T07:04:07.092Z,62.04
2019-05-16T07:06:51.868Z,61.79
2019-05-16T07:09:10.501Z,62.26
2019-05-16T07:11:40.114Z,63.94
2019-05-16T07:14:10.631Z,63.78
2019-05-16T07:16:40.947Z,64.53
2019-05-16T07:19:10.790Z,66.51
2019-05-16T07:21:40.591Z,68.80
2019-05-16T07:24:10.977Z,70.26
2019-05-16T07:26:41.007Z,71.33
2019-05-16T07:29:11.220Z,68.43
2019-05-16T07:31:41.089Z,66.79
2019-05-16T07:34:14.036Z,63.70
2019-05-16T07:36:42.245Z,65.46
2019-05-16T07:39:12.003Z,67.23
2019-05-16T07:41:41.756Z,65.53
2019-05-16T07:44:11.498Z,64.65
2019-05-16T07:46:46.749Z,63.22
2019-05-16T07:49:16.520Z,61.19
2019-05-16T07:51:46.287Z,63.31
2019-05-16T07:54:16.092Z,61.20
2019-05-16T07:56:45.930Z,59.86
2019-05-16T07:59:15.692Z,60.65
2019-05-16T08:01:45.622Z,62.09
2019-05-16T08:04:15.411Z,59.30
2019-05-16T08:06:47.089Z,56.56
2019-05-16T08:09:16.729Z,55.49
2019-05-16T08:11:46.567Z,56.92
2019-05-16T08:14:16.367Z,55.25
2019-05-16T08:16:46.256Z,57.07
2019-05-16T08:19:15.975Z,56.51
2019-05-16T08:21:45.822Z,57.63
2019-05-16T08:24:15.647Z,55.70
2019-05-16T08:26:45.544Z,54.58
2019-05-16T08:29:15.369Z,55.03
2019-05-16T08:31:45.081Z,56.22
2019-05-16T08:34:14.815Z,56.40
2019-05-16T08:36:44.668Z,55.71
2019-05-16T08:39:14.482Z,54.36
2019-05-16T08:41:44.239Z,55.71
2019-05-16T08:44:14.142Z,55.03
2019-05-16T08:46:43.961Z,56.78
2019-05-16T08:49:13.846Z,57.06
2019-05-16T08:51:43.719Z,58.28
2019-05-16T08:54:13.745Z,58.46
2019-05-16T08:56:44.540Z,58.76
2019-05-16T08:59:14.496Z,58.70
2019-05-16T09:01:52.153Z,58.65
2019-05-16T09:04:15.718Z,60.88
2019-05-16T09:06:45.601Z,60.83
2019-05-16T09:10:26.158Z,58.99
2019-05-16T09:11:48.693Z,60.44
2019-05-16T09:14:18.264Z,59.61
2019-05-16T09:16:48.100Z,59.75
2019-05-16T09:19:17.801Z,63.10
2019-05-16T09:21:47.886Z,66.30
2019-05-16T09:24:18.170Z,67.85
2019-05-16T09:26:48.185Z,70.01
2019-05-16T09:29:17.990Z,71.52
2019-05-16T09:32:07.402Z,73.29
2019-05-16T09:34:19.280Z,71.99
2019-05-16T09:36:49.170Z,75.43
2019-05-16T09:39:19.049Z,75.79
2019-05-16T09:41:54.550Z,75.36
2019-05-16T09:44:20.236Z,78.09
2019-05-16T09:46:50.138Z,75.27
2019-05-16T09:49:24.617Z,75.22
2019-05-16T09:51:51.567Z,75.30
2019-05-16T09:54:21.440Z,75.07
2019-05-16T09:56:51.323Z,75.39
2019-05-16T09:59:21.125Z,75.30
2019-05-16T10:01:50.979Z,75.28
2019-05-16T10:04:20.769Z,74.37
2019-05-16T10:06:50.579Z,72.88
2019-05-16T10:09:20.418Z,71.97
2019-05-16T10:12:05.467Z,70.50
2019-05-16T10:14:21.724Z,73.14
2019-05-16T10:16:51.602Z,71.16
2019-05-16T10:19:21.448Z,71.84
2019-05-16T10:21:51.225Z,71.12
2019-05-16T10:24:21.150Z,70.61
2019-05-16T10:26:53.930Z,70.93
2019-05-16T10:29:22.619Z,70.17
2019-05-16T10:31:53.413Z,68.72
2019-05-16T10:34:23.491Z,68.27
2019-05-16T10:36:53.296Z,68.67
2019-05-16T10:39:23.216Z,68.31
2019-05-16T10:41:53.053Z,67.33
2019-05-16T10:44:22.931Z,67.21
2019-05-16T10:46:52.781Z,68.47
2019-05-16T10:49:34.323Z,70.25
2019-05-16T10:51:54.145Z,69.87
2019-05-16T10:54:23.959Z,71.02
2019-05-16T10:56:53.816Z,70.58
2019-05-16T10:59:56.609Z,71.44
2019-05-16T11:01:56.351Z,72.10
2019-05-16T11:04:37.594Z,72.56
2019-05-16T11:06:58.063Z,74.06
2019-05-16T11:09:27.826Z,75.95
2019-05-16T11:11:57.625Z,76.39
2019-05-16T11:14:28.202Z,76.07
2019-05-16T11:16:58.276Z,76.78
2019-05-16T11:19:28.487Z,77.19
2019-05-16T11:21:58.345Z,76.30
2019-05-16T11:24:29.331Z,76.76
2019-05-16T11:26:59.314Z,76.13
2019-05-16T11:29:29.237Z,77.25
2019-05-16T11:31:59.036Z,76.14
2019-05-16T11:34:28.763Z,76.31
2019-05-16T11:36:58.546Z,74.18
2019-05-16T11:39:28.386Z,72.59
2019-05-16T11:41:58.284Z,71.94
2019-05-16T11:44:28.918Z,71.95
2019-05-16T11:46:59.054Z,70.06
2019-05-16T11:49:28.750Z,69.71
2019-05-16T11:51:58.514Z,69.96
2019-05-16T11:54:28.239Z,70.55
2019-05-16T11:56:58.148Z,68.41
2019-05-16T11:59:27.843Z,68.88
2019-05-16T12:01:57.614Z,66.91
2019-05-16T12:04:28.094Z,66.76
2019-05-16T12:06:58.188Z,66.50
2019-05-16T12:09:33.659Z,66.04
2019-05-16T12:12:03.887Z,65.48
2019-05-16T12:14:31.050Z,64.41
2019-05-16T12:17:00.928Z,64.14
2019-05-16T12:19:34.453Z,62.15
2019-05-16T12:22:02.242Z,62.98
2019-05-16T12:24:37.457Z,62.95
2019-05-16T12:27:03.587Z,60.75
2019-05-16T12:29:33.335Z,61.25
2019-05-16T12:32:03.429Z,60.64
2019-05-16T12:34:33.557Z,59.03
2019-05-16T12:37:03.284Z,57.66
2019-05-16T12:39:33.204Z,56.56
2019-05-16T12:42:03.035Z,57.09
2019-05-16T12:44:32.782Z,55.26
2019-05-16T12:47:02.589Z,56.45
2019-05-16T12:49:32.437Z,55.83
2019-05-16T12:52:02.281Z,53.50
2019-05-16T12:54:31.953Z,56.92
2019-05-16T12:57:01.690Z,54.35
2019-05-16T12:59:31.453Z,54.18
2019-05-16T13:02:01.193Z,54.15
2019-05-16T13:04:30.950Z,55.21
2019-05-16T13:07:00.805Z,54.94
2019-05-16T13:09:30.548Z,56.03
2019-05-16T13:12:00.289Z,55.63
2019-05-16T13:14:30.173Z,56.00
2019-05-16T13:17:00.021Z,55.85
2019-05-16T13:19:32.969Z,54.07
2019-05-16T13:22:01.347Z,54.44
2019-05-16T13:24:31.178Z,57.29
2019-05-16T13:27:01.005Z,58.18
2019-05-16T13:29:30.810Z,57.03
2019-05-16T13:32:00.788Z,57.42
2019-05-16T13:34:30.709Z,55.30
2019-05-16T13:37:00.565Z,58.30
2019-05-16T13:39:30.285Z,57.27
2019-05-16T13:42:00.079Z,58.21
2019-05-16T13:44:29.817Z,57.52
2019-05-16T13:47:26.814Z,56.67
2019-05-16T13:49:55.879Z,57.97
2019-05-16T13:52:28.232Z,56.72
2019-05-16T13:54:57.262Z,57.77
2019-05-16T13:57:28.333Z,58.17
2019-05-16T13:59:58.293Z,63.01
2019-05-16T14:02:28.117Z,59.37
2019-05-16T14:04:57.892Z,60.28
2019-05-16T14:07:27.626Z,61.73
2019-05-16T14:09:57.957Z,63.37
2019-05-16T14:12:27.728Z,64.86
2019-05-16T14:14:57.547Z,65.64
2019-05-16T14:17:27.622Z,67.94
2019-05-16T14:19:57.487Z,66.51
2019-05-16T14:22:27.768Z,67.89
2019-05-16T14:24:57.710Z,68.45
2019-05-16T14:27:27.506Z,67.39
2019-05-16T14:29:57.855Z,67.39
2019-05-16T14:32:27.641Z,68.45
2019-05-16T14:34:58.948Z,70.11
2019-05-16T14:37:29.034Z,69.57
2019-05-16T14:40:01.314Z,70.52
2019-05-16T14:42:30.410Z,70.98
2019-05-16T14:45:10.831Z,69.00
2019-05-16T14:47:31.682Z,67.08
2019-05-16T14:50:01.626Z,67.42
2019-05-16T14:52:31.590Z,67.27
2019-05-16T14:55:01.496Z,66.87
2019-05-16T14:57:31.240Z,67.35
2019-05-16T15:00:01.003Z,66.88
2019-05-16T15:02:30.794Z,65.49
2019-05-16T15:05:00.609Z,66.08
2019-05-16T15:07:30.538Z,65.94
2019-05-16T15:10:00.340Z,64.77
2019-05-16T15:12:30.162Z,63.01
2019-05-16T15:15:15.644Z,62.89
2019-05-16T15:17:31.601Z,61.20
2019-05-16T15:20:01.287Z,58.03
2019-05-16T15:22:31.078Z,58.20
2019-05-16T15:25:00.888Z,57.33
2019-05-16T15:27:30.733Z,56.51
2019-05-16T15:30:00.547Z,57.47
2019-05-16T15:32:31.808Z,57.17
2019-05-16T15:35:01.823Z,56.91
2019-05-16T15:37:31.715Z,57.53
2019-05-16T15:40:01.509Z,56.46
2019-05-16T15:42:31.260Z,57.74
2019-05-16T15:45:01.103Z,57.39
2019-05-16T15:47:31.294Z,56.21
2019-05-16T15:50:01.120Z,56.16
2019-05-16T15:52:31.536Z,55.11
2019-05-16T15:55:02.474Z,56.45
2019-05-16T15:57:32.269Z,56.05
2019-05-16T16:00:02.144Z,54.60
2019-05-16T16:02:32.029Z,53.56
2019-05-16T16:05:01.777Z,52.79
2019-05-16T16:07:33.087Z,51.73
2019-05-16T16:10:03.120Z,52.49
2019-05-16T16:12:32.949Z,50.10
2019-05-16T16:15:02.757Z,49.87
2019-05-16T16:17:32.865Z,50.00
2019-05-16T16:20:02.776Z,49.98
2019-05-16T16:22:32.654Z,49.23
2019-05-16T16:25:02.440Z,48.64
2019-05-16T16:27:32.178Z,49.19
2019-05-16T16:30:02.130Z,49.04
2019-05-16T16:32:31.987Z,49.89
2019-05-16T16:35:01.730Z,49.88
2019-05-16T16:37:31.551Z,50.13
2019-05-16T16:40:01.343Z,49.80
2019-05-16T16:42:31.132Z,49.91
2019-05-16T16:45:01.059Z,49.70
2019-05-16T16:47:31.836Z,50.49
2019-05-16T16:50:01.671Z,50.59
2019-05-16T16:52:31.517Z,50.46
2019-05-16T16:55:01.420Z,50.96
2019-05-16T16:57:31.518Z,51.60
2019-05-16T17:00:01.426Z,50.99
2019-05-16T17:02:31.330Z,51.68
2019-05-16T17:05:02.664Z,52.17
2019-05-16T17:07:32.629Z,52.41
2019-05-16T17:10:02.462Z,53.33
2019-05-16T17:12:32.283Z,53.91
2019-05-16T17:15:02.326Z,54.76
2019-05-16T17:17:32.241Z,55.41
2019-05-16T17:20:02.143Z,55.94
2019-05-16T17:22:32.008Z,56.57
2019-05-16T17:25:01.883Z,56.73
2019-05-16T17:27:31.721Z,57.32
2019-05-16T17:30:01.627Z,57.59
2019-05-16T17:32:31.403Z,57.98
2019-05-16T17:35:01.168Z,58.56
2019-05-16T17:37:30.983Z,59.15
2019-05-16T17:40:00.800Z,59.36
2019-05-16T17:42:30.890Z,59.88
2019-05-16T17:45:00.653Z,60.36
2019-05-16T17:47:31.782Z,60.24
2019-05-16T17:50:01.702Z,60.57
2019-05-16T17:52:31.487Z,60.83
2019-05-16T17:55:01.453Z,61.11
2019-05-16T17:57:31.245Z,60.90
2019-05-16T18:00:01.188Z,61.26
2019-05-16T18:02:31.009Z,60.98
2019-05-16T18:05:00.886Z,61.29
2019-05-16T18:07:30.690Z,61.45
2019-05-16T18:10:00.508Z,61.46
2019-05-16T18:12:30.417Z,61.33
2019-05-16T18:15:00.184Z,60.86
2019-05-16T18:17:30.048Z,61.13
2019-05-16T18:19:59.878Z,61.65
2019-05-16T18:22:29.685Z,61.76
2019-05-16T18:24:59.635Z,61.50
2019-05-16T18:27:29.480Z,61.55
2019-05-16T18:29:59.215Z,61.85
2019-05-16T18:32:29.129Z,61.94
2019-05-16T18:34:58.976Z,61.71
2019-05-16T18:37:28.739Z,61.47
2019-05-16T18:39:58.658Z,61.32
2019-05-16T18:42:28.555Z,60.81
2019-05-16T18:44:58.321Z,61.10
2019-05-16T18:47:28.257Z,61.09
2019-05-16T18:49:58.084Z,61.11
2019-05-16T18:52:27.811Z,61.22
2019-05-16T18:54:57.795Z,60.88
2019-05-16T18:57:27.671Z,60.86
2019-05-16T18:59:57.732Z,60.65
2019-05-16T19:02:27.659Z,60.37
2019-05-16T19:04:57.885Z,60.45
2019-05-16T19:07:27.925Z,61.08
2019-05-16T19:09:57.736Z,59.93
2019-05-16T19:12:27.670Z,60.37
2019-05-16T19:15:00.208Z,60.66
2019-05-16T19:17:29.167Z,60.52
2019-05-16T19:19:59.141Z,60.71
2019-05-16T19:22:29.016Z,61.10
2019-05-16T19:24:58.945Z,60.35
2019-05-16T19:27:28.900Z,60.15
2019-05-16T19:29:58.928Z,60.35
2019-05-16T19:32:28.724Z,61.12
2019-05-16T19:35:00.436Z,61.17
2019-05-16T19:37:30.386Z,61.51
2019-05-16T19:40:06.438Z,61.56
2019-05-16T19:42:38.144Z,61.59
2019-05-16T19:45:09.072Z,61.96
2019-05-16T19:47:41.561Z,62.11
2019-05-16T19:50:13.037Z,62.43
2019-05-16T19:53:08.658Z,62.40
2019-05-16T19:56:20.132Z,62.53
2019-05-16T19:58:38.107Z,62.91
2019-05-16T20:01:09.675Z,63.46
2019-05-16T20:03:39.497Z,64.02
2019-05-16T20:06:09.413Z,64.07
2019-05-16T20:08:39.201Z,64.24
2019-05-16T20:11:09.046Z,64.65
2019-05-16T20:13:38.890Z,64.99
2019-05-16T20:16:08.753Z,65.38
2019-05-16T20:18:38.535Z,65.84
2019-05-16T20:21:09.202Z,66.04
2019-05-16T20:23:39.028Z,65.90
2019-05-16T20:26:08.789Z,66.55
2019-05-16T20:28:38.545Z,67.07
2019-05-16T20:31:08.362Z,67.29
2019-05-16T20:33:38.191Z,67.31
2019-05-16T20:36:09.435Z,67.31
2019-05-16T20:38:39.482Z,67.31
2019-05-16T20:41:09.210Z,67.25
2019-05-16T20:43:39.067Z,67.90
2019-05-16T20:46:08.886Z,68.40
2019-05-16T20:48:39.685Z,68.52
2019-05-16T20:51:09.563Z,68.57
2019-05-16T20:53:39.437Z,68.51
2019-05-16T20:56:09.381Z,68.85
2019-05-16T20:58:39.150Z,68.87
2019-05-16T21:01:08.961Z,69.16
2019-05-16T21:03:38.740Z,69.08
2019-05-16T21:06:09.023Z,69.66
2019-05-16T21:08:38.752Z,69.72
2019-05-16T21:11:08.613Z,69.68
2019-05-16T21:13:38.404Z,69.48
2019-05-16T21:16:08.237Z,69.15
2019-05-16T21:18:37.985Z,69.31
2019-05-16T21:21:07.934Z,68.70
2019-05-16T21:23:37.709Z,68.58
2019-05-16T21:26:07.638Z,68.42
2019-05-16T21:28:37.570Z,68.32
2019-05-16T21:31:07.656Z,68.58
2019-05-16T21:33:37.504Z,69.25
2019-05-16T21:36:07.415Z,69.46
2019-05-16T21:38:37.255Z,69.45
2019-05-16T21:41:07.506Z,69.79
2019-05-16T21:43:37.765Z,69.61
2019-05-16T21:46:07.716Z,69.81
2019-05-16T21:48:42.056Z,70.06
2019-05-16T21:51:11.835Z,70.44
2019-05-16T21:53:43.121Z,70.90
2019-05-16T21:56:12.910Z,71.30
2019-05-16T21:58:42.649Z,71.67
2019-05-16T22:01:15.484Z,72.52
2019-05-16T22:03:47.098Z,72.18
2019-05-16T22:06:16.971Z,72.20
2019-05-16T22:08:47.519Z,71.72
2019-05-16T22:11:17.366Z,73.10
2019-05-16T22:13:47.017Z,72.44
2019-05-16T22:16:17.550Z,73.64
2019-05-16T22:18:47.687Z,74.57
2019-05-16T22:21:17.423Z,75.80
2019-05-16T22:23:47.259Z,76.81
2019-05-16T22:26:17.098Z,76.36
2019-05-16T22:28:49.436Z,76.84
2019-05-16T22:31:18.337Z,76.37
2019-05-16T22:33:48.044Z,75.69
2019-05-16T22:36:17.733Z,75.77
2019-05-16T22:38:47.428Z,75.90
2019-05-16T22:41:17.405Z,75.70
2019-05-16T22:43:47.158Z,76.10
2019-05-16T22:46:17.846Z,76.33
2019-05-16T22:48:47.759Z,77.27
2019-05-16T22:51:17.516Z,78.54
2019-05-16T22:53:47.272Z,79.70
2019-05-16T22:56:17.365Z,79.98
2019-05-16T22:58:47.437Z,81.27
2019-05-16T23:01:17.654Z,82.50
2019-05-16T23:03:47.357Z,84.81
2019-05-16T23:06:17.044Z,86.53
2019-05-16T23:08:47.171Z,88.52
2019-05-16T23:11:17.116Z,90.27
2019-05-16T23:13:46.816Z,91.70
2019-05-16T23:16:17.176Z,92.56
2019-05-16T23:18:47.207Z,92.89
2019-05-16T23:21:17.188Z,94.18
2019-05-16T23:23:46.917Z,95.53
2019-05-16T23:26:16.853Z,96.66
2019-05-16T23:28:47.196Z,97.62
2019-05-16T23:31:17.187Z,98.49
2019-05-16T23:33:47.189Z,99.14
2019-05-16T23:36:17.581Z,99.71
2019-05-16T23:38:47.604Z,100.00
2019-05-16T23:41:17.555Z,100.00
2019-05-16T23:43:47.482Z,100.00
2019-05-16T23:46:17.307Z,100.00
2019-05-16T23:48:47.365Z,100.00
2019-05-16T23:51:40.304Z,100.00
2019-05-16T23:54:10.092Z,100.00
2019-05-16T23:56:43.184Z,100.00
2019-05-16T23:59:13.024Z,100.00
